sensor_id;sensor_type;location;lat;lon;timestamp;pressure;altitude;pressure_sealevel;temperature;humidity
8575;BME280;4325;42.520;27.448;2023-04-26T00:01:02;100111.16;;;14.54;100.00
8575;BME280;4325;42.520;27.448;2023-04-26T00:03:30;100100.63;;;14.57;100.00
8575;BME280;4325;42.520;27.448;2023-04-26T00:05:58;100102.25;;;14.58;100.00
8575;BME280;4325;42.520;27.448;2023-04-26T00:08:28;100106.63;;;14.59;100.00
8575;BME280;4325;42.520;27.448;2023-04-26T00:10:55;100109.88;;;14.61;100.00
8575;BME280;4325;42.520;27.448;2023-04-26T00:13:22;100114.97;;;14.67;100.00
8575;BME280;4325;42.520;27.448;2023-04-26T00:15:49;100108.63;;;14.67;100.00
8575;BME280;4325;42.520;27.448;2023-04-26T00:18:17;100111.88;;;14.69;100.00
8575;BME280;4325;42.520;27.448;2023-04-26T00:20:44;100108.81;;;14.70;100.00
8575;BME280;4325;42.520;27.448;2023-04-26T00:23:11;100108.03;;;14.70;100.00
8575;BME280;4325;42.520;27.448;2023-04-26T00:25:38;100105.88;;;14.67;100.00
8575;BME280;4325;42.520;27.448;2023-04-26T00:28:05;100107.00;;;14.66;100.00
8575;BME280;4325;42.520;27.448;2023-04-26T00:30:34;100109.25;;;14.64;100.00
8575;BME280;4325;42.520;27.448;2023-04-26T00:33:02;100101.63;;;14.61;100.00
8575;BME280;4325;42.520;27.448;2023-04-26T00:35:30;100099.50;;;14.58;100.00
8575;BME280;4325;42.520;27.448;2023-04-26T00:37:57;100099.31;;;14.54;100.00
8575;BME280;4325;42.520;27.448;2023-04-26T00:40:24;100100.63;;;14.57;100.00
8575;BME280;4325;42.520;27.448;2023-04-26T00:42:56;100091.75;;;14.60;100.00
8575;BME280;4325;42.520;27.448;2023-04-26T00:45:23;100089.09;;;14.54;100.00
8575;BME280;4325;42.520;27.448;2023-04-26T00:47:50;100082.56;;;14.50;100.00
8575;BME280;4325;42.520;27.448;2023-04-26T00:50:17;100085.03;;;14.52;100.00
8575;BME280;4325;42.520;27.448;2023-04-26T00:52:46;100069.94;;;14.49;100.00
8575;BME280;4325;42.520;27.448;2023-04-26T00:55:13;100068.31;;;14.48;100.00
8575;BME280;4325;42.520;27.448;2023-04-26T00:57:42;100074.16;;;14.47;100.00
8575;BME280;4325;42.520;27.448;2023-04-26T01:00:11;100067.50;;;14.48;100.00
8575;BME280;4325;42.520;27.448;2023-04-26T01:02:38;100077.06;;;14.50;100.00
8575;BME280;4325;42.520;27.448;2023-04-26T01:05:06;100077.41;;;14.49;100.00
8575;BME280;4325;42.520;27.448;2023-04-26T01:07:33;100078.34;;;14.44;100.00
8575;BME280;4325;42.520;27.448;2023-04-26T01:10:03;100074.28;;;14.42;100.00
8575;BME280;4325;42.520;27.448;2023-04-26T01:12:31;100074.88;;;14.39;100.00
8575;BME280;4325;42.520;27.448;2023-04-26T01:14:58;100069.22;;;14.35;100.00
8575;BME280;4325;42.520;27.448;2023-04-26T01:17:25;100068.81;;;14.28;100.00
8575;BME280;4325;42.520;27.448;2023-04-26T01:19:52;100071.69;;;14.23;100.00
8575;BME280;4325;42.520;27.448;2023-04-26T01:22:19;100059.25;;;14.12;100.00
8575;BME280;4325;42.520;27.448;2023-04-26T01:24:50;100058.69;;;14.02;100.00
8575;BME280;4325;42.520;27.448;2023-04-26T01:27:17;100069.06;;;14.05;100.00
8575;BME280;4325;42.520;27.448;2023-04-26T01:29:44;100071.31;;;14.03;100.00
8575;BME280;4325;42.520;27.448;2023-04-26T01:32:12;100072.16;;;14.03;100.00
8575;BME280;4325;42.520;27.448;2023-04-26T01:34:39;100067.25;;;14.00;100.00
8575;BME280;4325;42.520;27.448;2023-04-26T01:37:05;100063.00;;;13.94;100.00
8575;BME280;4325;42.520;27.448;2023-04-26T01:39:33;100067.47;;;13.90;100.00
8575;BME280;4325;42.520;27.448;2023-04-26T01:42:02;100065.75;;;13.94;100.00
8575;BME280;4325;42.520;27.448;2023-04-26T01:44:29;100061.38;;;13.93;100.00
8575;BME280;4325;42.520;27.448;2023-04-26T01:46:56;100060.13;;;13.99;100.00
8575;BME280;4325;42.520;27.448;2023-04-26T01:49:23;100054.63;;;13.99;100.00
8575;BME280;4325;42.520;27.448;2023-04-26T01:51:50;100055.25;;;13.96;100.00
8575;BME280;4325;42.520;27.448;2023-04-26T01:54:17;100063.28;;;13.93;100.00
8575;BME280;4325;42.520;27.448;2023-04-26T01:56:44;100057.19;;;13.96;100.00
8575;BME280;4325;42.520;27.448;2023-04-26T01:59:13;100050.19;;;13.89;100.00
8575;BME280;4325;42.520;27.448;2023-04-26T02:01:40;100053.03;;;13.84;100.00
8575;BME280;4325;42.520;27.448;2023-04-26T02:04:07;100042.56;;;13.73;100.00
8575;BME280;4325;42.520;27.448;2023-04-26T02:06:34;100037.59;;;13.61;100.00
8575;BME280;4325;42.520;27.448;2023-04-26T02:09:02;100024.78;;;13.57;100.00
8575;BME280;4325;42.520;27.448;2023-04-26T02:11:29;100035.78;;;13.57;100.00
8575;BME280;4325;42.520;27.448;2023-04-26T02:13:56;100021.53;;;13.55;100.00
8575;BME280;4325;42.520;27.448;2023-04-26T02:16:24;100024.56;;;13.53;100.00
8575;BME280;4325;42.520;27.448;2023-04-26T02:18:51;100018.88;;;13.50;100.00
8575;BME280;4325;42.520;27.448;2023-04-26T02:21:20;100022.22;;;13.47;100.00
8575;BME280;4325;42.520;27.448;2023-04-26T02:23:47;100025.50;;;13.49;100.00
8575;BME280;4325;42.520;27.448;2023-04-26T02:26:14;100028.25;;;13.49;100.00
8575;BME280;4325;42.520;27.448;2023-04-26T02:28:41;100039.56;;;13.47;100.00
8575;BME280;4325;42.520;27.448;2023-04-26T02:31:08;100028.88;;;13.46;100.00
8575;BME280;4325;42.520;27.448;2023-04-26T02:33:37;100032.13;;;13.34;100.00
8575;BME280;4325;42.520;27.448;2023-04-26T02:36:04;100032.53;;;13.28;100.00
8575;BME280;4325;42.520;27.448;2023-04-26T02:38:32;100020.53;;;13.23;100.00
8575;BME280;4325;42.520;27.448;2023-04-26T02:41:01;100018.91;;;13.22;100.00
8575;BME280;4325;42.520;27.448;2023-04-26T02:43:29;100023.91;;;13.20;100.00
8575;BME280;4325;42.520;27.448;2023-04-26T02:45:56;100020.31;;;13.20;100.00
8575;BME280;4325;42.520;27.448;2023-04-26T02:48:25;100024.41;;;13.22;100.00
8575;BME280;4325;42.520;27.448;2023-04-26T02:50:54;100020.16;;;13.16;100.00
8575;BME280;4325;42.520;27.448;2023-04-26T02:53:21;100017.91;;;13.18;100.00
8575;BME280;4325;42.520;27.448;2023-04-26T02:55:48;100024.00;;;13.15;100.00
8575;BME280;4325;42.520;27.448;2023-04-26T02:58:15;100028.91;;;13.18;100.00
8575;BME280;4325;42.520;27.448;2023-04-26T03:00:45;100030.72;;;13.23;100.00
8575;BME280;4325;42.520;27.448;2023-04-26T03:03:12;100030.91;;;13.27;100.00
8575;BME280;4325;42.520;27.448;2023-04-26T03:05:39;100032.66;;;13.22;100.00
8575;BME280;4325;42.520;27.448;2023-04-26T03:08:08;100041.50;;;13.19;100.00
8575;BME280;4325;42.520;27.448;2023-04-26T03:10:35;100036.41;;;13.27;100.00
8575;BME280;4325;42.520;27.448;2023-04-26T03:13:03;100037.44;;;13.31;100.00
8575;BME280;4325;42.520;27.448;2023-04-26T03:15:30;100042.13;;;13.30;100.00
8575;BME280;4325;42.520;27.448;2023-04-26T03:17:57;100039.69;;;13.29;100.00
8575;BME280;4325;42.520;27.448;2023-04-26T03:20:23;100044.75;;;13.35;100.00
8575;BME280;4325;42.520;27.448;2023-04-26T03:22:50;100039.44;;;13.39;100.00
8575;BME280;4325;42.520;27.448;2023-04-26T03:25:19;100049.22;;;13.45;100.00
8575;BME280;4325;42.520;27.448;2023-04-26T03:27:45;100047.50;;;13.49;100.00
8575;BME280;4325;42.520;27.448;2023-04-26T03:30:13;100043.53;;;13.55;100.00
8575;BME280;4325;42.520;27.448;2023-04-26T03:32:40;100042.38;;;13.56;100.00
8575;BME280;4325;42.520;27.448;2023-04-26T03:35:08;100046.16;;;13.60;100.00
8575;BME280;4325;42.520;27.448;2023-04-26T03:37:35;100052.06;;;13.67;100.00
8575;BME280;4325;42.520;27.448;2023-04-26T03:40:05;100049.19;;;13.72;100.00
8575;BME280;4325;42.520;27.448;2023-04-26T03:42:34;100048.59;;;13.75;100.00
8575;BME280;4325;42.520;27.448;2023-04-26T03:45:02;100042.06;;;13.71;100.00
8575;BME280;4325;42.520;27.448;2023-04-26T03:47:29;100046.13;;;13.73;100.00
8575;BME280;4325;42.520;27.448;2023-04-26T03:49:56;100048.59;;;13.75;100.00
8575;BME280;4325;42.520;27.448;2023-04-26T03:52:23;100052.34;;;13.79;100.00
8575;BME280;4325;42.520;27.448;2023-04-26T03:54:50;100057.72;;;13.84;100.00
8575;BME280;4325;42.520;27.448;2023-04-26T03:57:17;100058.72;;;13.88;100.00
8575;BME280;4325;42.520;27.448;2023-04-26T03:59:45;100057.63;;;13.89;100.00
8575;BME280;4325;42.520;27.448;2023-04-26T04:02:12;100061.38;;;13.93;100.00
8575;BME280;4325;42.520;27.448;2023-04-26T04:04:39;100058.50;;;13.98;100.00
8575;BME280;4325;42.520;27.448;2023-04-26T04:07:06;100059.50;;;14.02;100.00
8575;BME280;4325;42.520;27.448;2023-04-26T04:09:33;100056.13;;;14.05;100.00
8575;BME280;4325;42.520;27.448;2023-04-26T04:12:00;100074.56;;;14.05;100.00
8575;BME280;4325;42.520;27.448;2023-04-26T04:14:27;100066.03;;;14.06;100.00
8575;BME280;4325;42.520;27.448;2023-04-26T04:16:55;100077.16;;;14.01;100.00
8575;BME280;4325;42.520;27.448;2023-04-26T04:19:23;100081.63;;;13.97;100.00
8575;BME280;4325;42.520;27.448;2023-04-26T04:21:50;100076.25;;;13.92;100.00
8575;BME280;4325;42.520;27.448;2023-04-26T04:24:17;100085.75;;;13.86;100.00
8575;BME280;4325;42.520;27.448;2023-04-26T04:26:44;100089.72;;;13.80;100.00
8575;BME280;4325;42.520;27.448;2023-04-26T04:29:11;100084.63;;;13.73;100.00
8575;BME280;4325;42.520;27.448;2023-04-26T04:31:38;100092.28;;;13.63;100.00
8575;BME280;4325;42.520;27.448;2023-04-26T04:34:07;100097.38;;;13.56;100.00
8575;BME280;4325;42.520;27.448;2023-04-26T04:36:34;100099.72;;;13.49;100.00
8575;BME280;4325;42.520;27.448;2023-04-26T04:39:03;100098.72;;;13.45;100.00
8575;BME280;4325;42.520;27.448;2023-04-26T04:41:30;100106.06;;;13.36;100.00
8575;BME280;4325;42.520;27.448;2023-04-26T04:43:59;100106.16;;;13.31;100.00
8575;BME280;4325;42.520;27.448;2023-04-26T04:46:26;100118.28;;;13.30;100.00
8575;BME280;4325;42.520;27.448;2023-04-26T04:48:53;100118.38;;;13.24;100.00
8575;BME280;4325;42.520;27.448;2023-04-26T04:51:21;100109.22;;;13.15;100.00
8575;BME280;4325;42.520;27.448;2023-04-26T04:53:48;100116.72;;;13.10;100.00
8575;BME280;4325;42.520;27.448;2023-04-26T04:56:15;100116.94;;;13.13;100.00
8575;BME280;4325;42.520;27.448;2023-04-26T04:58:42;100117.03;;;13.08;100.00
8575;BME280;4325;42.520;27.448;2023-04-26T05:01:09;100109.81;;;13.12;100.00
8575;BME280;4325;42.520;27.448;2023-04-26T05:03:36;100108.59;;;13.18;100.00
8575;BME280;4325;42.520;27.448;2023-04-26T05:06:04;100102.59;;;13.16;100.00
8575;BME280;4325;42.520;27.448;2023-04-26T05:08:32;100117.03;;;13.22;100.00
8575;BME280;4325;42.520;27.448;2023-04-26T05:11:00;100111.53;;;13.22;100.00
8575;BME280;4325;42.520;27.448;2023-04-26T05:13:27;100112.59;;;13.26;100.00
8575;BME280;4325;42.520;27.448;2023-04-26T05:15:54;100110.63;;;13.27;100.00
8575;BME280;4325;42.520;27.448;2023-04-26T05:18:21;100106.56;;;13.38;100.00
8575;BME280;4325;42.520;27.448;2023-04-26T05:20:47;100106.16;;;13.44;100.00
8575;BME280;4325;42.520;27.448;2023-04-26T05:23:14;100115.63;;;13.52;100.00
8575;BME280;4325;42.520;27.448;2023-04-26T05:25:43;100115.53;;;13.57;100.00
8575;BME280;4325;42.520;27.448;2023-04-26T05:28:10;100110.25;;;13.60;100.00
8575;BME280;4325;42.520;27.448;2023-04-26T05:30:38;100118.69;;;13.64;100.00
8575;BME280;4325;42.520;27.448;2023-04-26T05:33:05;100103.72;;;13.70;100.00
8575;BME280;4325;42.520;27.448;2023-04-26T05:35:32;100107.25;;;13.84;100.00
8575;BME280;4325;42.520;27.448;2023-04-26T05:37:59;100108.03;;;13.98;100.00
8575;BME280;4325;42.520;27.448;2023-04-26T05:40:26;100105.06;;;14.08;100.00
8575;BME280;4325;42.520;27.448;2023-04-26T05:42:54;100102.69;;;14.15;100.00
8575;BME280;4325;42.520;27.448;2023-04-26T05:45:21;100101.84;;;14.28;100.00
8575;BME280;4325;42.520;27.448;2023-04-26T05:47:48;100103.25;;;14.39;100.00
8575;BME280;4325;42.520;27.448;2023-04-26T05:50:16;100103.38;;;14.57;100.00
8575;BME280;4325;42.520;27.448;2023-04-26T05:52:43;100108.63;;;14.67;100.00
8575;BME280;4325;42.520;27.448;2023-04-26T05:55:09;100108.19;;;14.73;100.00
8575;BME280;4325;42.520;27.448;2023-04-26T05:57:37;100111.31;;;14.80;100.00
8575;BME280;4325;42.520;27.448;2023-04-26T06:00:08;100109.59;;;14.93;100.00
8575;BME280;4325;42.520;27.448;2023-04-26T06:02:35;100108.50;;;14.94;100.00
8575;BME280;4325;42.520;27.448;2023-04-26T06:05:03;100111.13;;;14.99;100.00
8575;BME280;4325;42.520;27.448;2023-04-26T06:07:30;100108.03;;;15.00;100.00
8575;BME280;4325;42.520;27.448;2023-04-26T06:10:00;100105.84;;;15.11;100.00
8575;BME280;4325;42.520;27.448;2023-04-26T06:12:27;100109.28;;;15.25;100.00
8575;BME280;4325;42.520;27.448;2023-04-26T06:14:54;100105.78;;;15.33;100.00
8575;BME280;4325;42.520;27.448;2023-04-26T06:17:22;100110.38;;;15.46;100.00
8575;BME280;4325;42.520;27.448;2023-04-26T06:19:49;100118.03;;;15.58;100.00
8575;BME280;4325;42.520;27.448;2023-04-26T06:22:16;100125.22;;;15.67;100.00
8575;BME280;4325;42.520;27.448;2023-04-26T06:24:43;100125.72;;;15.69;100.00
8575;BME280;4325;42.520;27.448;2023-04-26T06:27:11;100128.84;;;15.76;100.00
8575;BME280;4325;42.520;27.448;2023-04-26T06:29:37;100131.94;;;15.83;100.00
8575;BME280;4325;42.520;27.448;2023-04-26T06:32:05;100136.03;;;16.03;100.00
8575;BME280;4325;42.520;27.448;2023-04-26T06:34:33;100128.56;;;16.21;100.00
8575;BME280;4325;42.520;27.448;2023-04-26T06:37:01;100122.91;;;16.34;100.00
8575;BME280;4325;42.520;27.448;2023-04-26T06:39:28;100131.34;;;16.46;100.00
8575;BME280;4325;42.520;27.448;2023-04-26T06:41:55;100122.44;;;16.58;100.00
8575;BME280;4325;42.520;27.448;2023-04-26T06:44:22;100132.53;;;16.71;100.00
8575;BME280;4325;42.520;27.448;2023-04-26T06:46:52;100128.28;;;16.74;100.00
8575;BME280;4325;42.520;27.448;2023-04-26T06:49:19;100121.94;;;16.73;100.00
8575;BME280;4325;42.520;27.448;2023-04-26T06:51:48;100124.88;;;16.77;100.00
8575;BME280;4325;42.520;27.448;2023-04-26T06:54:17;100136.38;;;16.87;100.00
8575;BME280;4325;42.520;27.448;2023-04-26T06:56:44;100131.34;;;16.89;100.00
8575;BME280;4325;42.520;27.448;2023-04-26T06:59:11;100129.56;;;16.93;100.00
8575;BME280;4325;42.520;27.448;2023-04-26T07:01:38;100139.16;;;16.96;100.00
8575;BME280;4325;42.520;27.448;2023-04-26T07:04:05;100146.94;;;17.02;100.00
8575;BME280;4325;42.520;27.448;2023-04-26T07:06:36;100152.78;;;17.09;100.00
8575;BME280;4325;42.520;27.448;2023-04-26T07:09:05;100143.97;;;17.25;100.00
8575;BME280;4325;42.520;27.448;2023-04-26T07:11:33;100151.03;;;17.43;100.00
8575;BME280;4325;42.520;27.448;2023-04-26T07:14:00;100144.03;;;17.54;100.00
8575;BME280;4325;42.520;27.448;2023-04-26T07:16:27;100146.72;;;17.71;100.00
8575;BME280;4325;42.520;27.448;2023-04-26T07:18:54;100148.75;;;17.91;100.00
8575;BME280;4325;42.520;27.448;2023-04-26T07:21:22;100153.41;;;17.99;100.00
8575;BME280;4325;42.520;27.448;2023-04-26T07:23:52;100150.44;;;18.04;100.00
8575;BME280;4325;42.520;27.448;2023-04-26T07:26:21;100149.03;;;17.98;100.00
8575;BME280;4325;42.520;27.448;2023-04-26T07:28:49;100148.84;;;18.24;100.00
8575;BME280;4325;42.520;27.448;2023-04-26T07:31:16;100136.72;;;18.78;100.00
8575;BME280;4325;42.520;27.448;2023-04-26T07:33:43;100148.94;;;19.67;100.00
8575;BME280;4325;42.520;27.448;2023-04-26T07:36:10;100141.22;;;20.88;100.00
8575;BME280;4325;42.520;27.448;2023-04-26T07:38:37;100141.09;;;22.22;100.00
8575;BME280;4325;42.520;27.448;2023-04-26T07:41:04;100154.44;;;23.43;96.64
8575;BME280;4325;42.520;27.448;2023-04-26T07:43:32;100159.75;;;23.97;87.89
8575;BME280;4325;42.520;27.448;2023-04-26T07:46:00;100167.25;;;23.90;83.33
8575;BME280;4325;42.520;27.448;2023-04-26T07:48:27;100168.38;;;23.62;85.50
8575;BME280;4325;42.520;27.448;2023-04-26T07:50:54;100167.66;;;23.27;81.95
8575;BME280;4325;42.520;27.448;2023-04-26T07:53:21;100171.09;;;22.98;83.17
8575;BME280;4325;42.520;27.448;2023-04-26T07:55:49;100172.94;;;22.71;84.98
8575;BME280;4325;42.520;27.448;2023-04-26T07:58:16;100171.97;;;22.64;85.66
8575;BME280;4325;42.520;27.448;2023-04-26T08:00:45;100172.69;;;22.61;84.04
8575;BME280;4325;42.520;27.448;2023-04-26T08:03:14;100177.09;;;22.62;80.94
8575;BME280;4325;42.520;27.448;2023-04-26T08:05:42;100174.63;;;22.76;80.85
8575;BME280;4325;42.520;27.448;2023-04-26T08:08:09;100178.50;;;22.90;79.95
8575;BME280;4325;42.520;27.448;2023-04-26T08:10:39;100175.66;;;22.87;77.35
8575;BME280;4325;42.520;27.448;2023-04-26T08:13:06;100179.31;;;22.72;73.43
8575;BME280;4325;42.520;27.448;2023-04-26T08:15:33;100172.91;;;22.36;71.23
8575;BME280;4325;42.520;27.448;2023-04-26T08:18:01;100174.72;;;21.94;75.82
8575;BME280;4325;42.520;27.448;2023-04-26T08:20:28;100172.25;;;21.46;77.76
8575;BME280;4325;42.520;27.448;2023-04-26T08:22:55;100175.72;;;20.99;81.82
8575;BME280;4325;42.520;27.448;2023-04-26T08:25:22;100177.69;;;20.71;83.39
8575;BME280;4325;42.520;27.448;2023-04-26T08:27:50;100177.91;;;20.38;87.27
8575;BME280;4325;42.520;27.448;2023-04-26T08:30:17;100173.38;;;20.10;91.32
8575;BME280;4325;42.520;27.448;2023-04-26T08:32:44;100167.03;;;19.97;95.01
8575;BME280;4325;42.520;27.448;2023-04-26T08:35:13;100163.66;;;20.04;96.67
8575;BME280;4325;42.520;27.448;2023-04-26T08:37:40;100164.09;;;20.30;95.87
8575;BME280;4325;42.520;27.448;2023-04-26T08:40:07;100175.41;;;20.61;93.30
8575;BME280;4325;42.520;27.448;2023-04-26T08:42:38;100164.19;;;20.85;87.87
8575;BME280;4325;42.520;27.448;2023-04-26T08:45:07;100174.19;;;21.14;85.95
8575;BME280;4325;42.520;27.448;2023-04-26T08:47:43;100168.81;;;21.37;82.55
8575;BME280;4325;42.520;27.448;2023-04-26T08:50:17;100166.25;;;21.59;80.12
8575;BME280;4325;42.520;27.448;2023-04-26T08:52:47;100169.56;;;21.65;78.89
8575;BME280;4325;42.520;27.448;2023-04-26T08:55:15;100170.28;;;21.62;76.48
8575;BME280;4325;42.520;27.448;2023-04-26T08:57:42;100171.75;;;21.56;74.59
8575;BME280;4325;42.520;27.448;2023-04-26T09:00:12;100179.78;;;21.30;76.58
8575;BME280;4325;42.520;27.448;2023-04-26T09:02:40;100181.22;;;20.84;75.56
8575;BME280;4325;42.520;27.448;2023-04-26T09:05:09;100182.16;;;20.48;79.00
8575;BME280;4325;42.520;27.448;2023-04-26T09:07:40;100187.16;;;20.30;79.41
8575;BME280;4325;42.520;27.448;2023-04-26T09:10:09;100184.16;;;20.11;79.22
8575;BME280;4325;42.520;27.448;2023-04-26T09:12:37;100191.44;;;19.92;78.52
8575;BME280;4325;42.520;27.448;2023-04-26T09:15:06;100196.53;;;19.77;79.31
8575;BME280;4325;42.520;27.448;2023-04-26T09:17:34;100191.19;;;19.60;81.81
8575;BME280;4325;42.520;27.448;2023-04-26T09:20:18;100187.56;;;19.48;85.03
8575;BME280;4325;42.520;27.448;2023-04-26T09:22:47;100178.44;;;19.59;85.63
8575;BME280;4325;42.520;27.448;2023-04-26T09:25:15;100176.16;;;19.73;86.73
8575;BME280;4325;42.520;27.448;2023-04-26T09:27:43;100176.88;;;19.83;86.82
8575;BME280;4325;42.520;27.448;2023-04-26T09:30:12;100172.00;;;19.92;86.26
8575;BME280;4325;42.520;27.448;2023-04-26T09:32:45;100181.72;;;19.61;89.17
8575;BME280;4325;42.520;27.448;2023-04-26T09:35:27;100173.44;;;19.08;91.26
8575;BME280;4325;42.520;27.448;2023-04-26T09:37:57;100167.38;;;18.32;99.17
8575;BME280;4325;42.520;27.448;2023-04-26T09:40:25;100164.97;;;18.01;100.00
8575;BME280;4325;42.520;27.448;2023-04-26T09:43:01;100169.44;;;17.56;100.00
8575;BME280;4325;42.520;27.448;2023-04-26T09:45:30;100164.31;;;17.20;100.00
8575;BME280;4325;42.520;27.448;2023-04-26T09:48:27;100167.81;;;16.57;100.00
8575;BME280;4325;42.520;27.448;2023-04-26T09:50:56;100169.47;;;16.02;100.00
8575;BME280;4325;42.520;27.448;2023-04-26T09:53:26;100162.03;;;15.54;100.00
8575;BME280;4325;42.520;27.448;2023-04-26T09:55:53;100163.69;;;15.33;100.00
8575;BME280;4325;42.520;27.448;2023-04-26T09:58:20;100162.09;;;14.88;100.00
8575;BME280;4325;42.520;27.448;2023-04-26T10:00:49;100155.22;;;14.54;100.00
8575;BME280;4325;42.520;27.448;2023-04-26T10:03:18;100157.41;;;14.44;100.00
8575;BME280;4325;42.520;27.448;2023-04-26T10:05:45;100155.50;;;14.31;100.00
8575;BME280;4325;42.520;27.448;2023-04-26T10:08:12;100155.06;;;14.37;100.00
8575;BME280;4325;42.520;27.448;2023-04-26T10:10:41;100157.50;;;14.39;100.00
8575;BME280;4325;42.520;27.448;2023-04-26T10:13:08;100141.59;;;14.36;100.00
8575;BME280;4325;42.520;27.448;2023-04-26T10:15:38;100148.53;;;14.33;100.00
8575;BME280;4325;42.520;27.448;2023-04-26T10:18:05;100155.50;;;14.17;100.00
8575;BME280;4325;42.520;27.448;2023-04-26T10:20:32;100143.06;;;14.20;100.00
8575;BME280;4325;42.520;27.448;2023-04-26T10:23:02;100141.63;;;14.22;100.00
8575;BME280;4325;42.520;27.448;2023-04-26T10:25:34;100125.91;;;14.23;100.00
8575;BME280;4325;42.520;27.448;2023-04-26T10:28:03;100131.53;;;14.53;100.00
8575;BME280;4325;42.520;27.448;2023-04-26T10:30:30;100132.63;;;14.88;100.00
8575;BME280;4325;42.520;27.448;2023-04-26T10:33:15;100119.03;;;15.31;100.00
8575;BME280;4325;42.520;27.448;2023-04-26T10:36:06;100131.28;;;15.87;100.00
8575;BME280;4325;42.520;27.448;2023-04-26T10:38:35;100126.19;;;16.62;100.00
8575;BME280;4325;42.520;27.448;2023-04-26T10:41:31;100129.34;;;17.15;100.00
8575;BME280;4325;42.520;27.448;2023-04-26T10:44:38;100137.13;;;17.68;100.00
8575;BME280;4325;42.520;27.448;2023-04-26T10:47:06;100129.09;;;18.87;100.00
8575;BME280;4325;42.520;27.448;2023-04-26T10:49:45;100139.00;;;19.09;100.00
8575;BME280;4325;42.520;27.448;2023-04-26T10:52:14;100138.78;;;19.14;100.00
8575;BME280;4325;42.520;27.448;2023-04-26T10:54:49;100141.38;;;19.31;100.00
8575;BME280;4325;42.520;27.448;2023-04-26T10:57:16;100143.66;;;19.17;100.00
8575;BME280;4325;42.520;27.448;2023-04-26T11:00:20;100140.00;;;19.37;100.00
8575;BME280;4325;42.520;27.448;2023-04-26T11:03:09;100140.59;;;19.43;100.00
8575;BME280;4325;42.520;27.448;2023-04-26T11:05:52;100133.41;;;18.97;100.00
8575;BME280;4325;42.520;27.448;2023-04-26T11:08:23;100139.44;;;18.66;100.00
8575;BME280;4325;42.520;27.448;2023-04-26T11:10:52;100133.06;;;17.95;100.00
8575;BME280;4325;42.520;27.448;2023-04-26T11:13:22;100137.38;;;17.38;100.00
8575;BME280;4325;42.520;27.448;2023-04-26T11:15:57;100132.31;;;16.85;100.00
8575;BME280;4325;42.520;27.448;2023-04-26T11:18:30;100138.81;;;16.46;100.00
8575;BME280;4325;42.520;27.448;2023-04-26T11:20:58;100138.34;;;16.27;100.00
8575;BME280;4325;42.520;27.448;2023-04-26T11:23:27;100143.03;;;16.18;100.00
8575;BME280;4325;42.520;27.448;2023-04-26T11:25:56;100140.28;;;16.43;100.00
8575;BME280;4325;42.520;27.448;2023-04-26T11:28:23;100132.81;;;16.70;100.00
8575;BME280;4325;42.520;27.448;2023-04-26T11:30:52;100147.94;;;16.72;100.00
8575;BME280;4325;42.520;27.448;2023-04-26T11:33:20;100150.22;;;16.87;100.00
8575;BME280;4325;42.520;27.448;2023-04-26T11:35:48;100145.00;;;16.94;100.00
8575;BME280;4325;42.520;27.448;2023-04-26T11:38:15;100140.78;;;16.88;100.00
8575;BME280;4325;42.520;27.448;2023-04-26T11:40:43;100146.13;;;17.10;100.00
8575;BME280;4325;42.520;27.448;2023-04-26T11:43:10;100145.44;;;17.13;100.00
8575;BME280;4325;42.520;27.448;2023-04-26T11:45:38;100148.72;;;17.15;100.00
8575;BME280;4325;42.520;27.448;2023-04-26T11:48:09;100150.13;;;17.22;100.00
8575;BME280;4325;42.520;27.448;2023-04-26T11:50:38;100151.47;;;17.15;100.00
8575;BME280;4325;42.520;27.448;2023-04-26T11:53:07;100150.97;;;17.13;100.00
8575;BME280;4325;42.520;27.448;2023-04-26T11:55:34;100148.97;;;17.40;100.00
8575;BME280;4325;42.520;27.448;2023-04-26T11:58:08;100141.56;;;17.61;100.00
8575;BME280;4325;42.520;27.448;2023-04-26T12:00:36;100145.97;;;17.91;100.00
8575;BME280;4325;42.520;27.448;2023-04-26T12:03:04;100145.00;;;18.16;100.00
8575;BME280;4325;42.520;27.448;2023-04-26T12:05:36;100146.03;;;18.32;100.00
8575;BME280;4325;42.520;27.448;2023-04-26T12:08:03;100150.38;;;18.63;100.00
8575;BME280;4325;42.520;27.448;2023-04-26T12:10:34;100146.25;;;19.01;100.00
8575;BME280;4325;42.520;27.448;2023-04-26T12:13:01;100142.47;;;19.18;100.00
8575;BME280;4325;42.520;27.448;2023-04-26T12:15:29;100143.19;;;19.15;100.00
8575;BME280;4325;42.520;27.448;2023-04-26T12:17:58;100141.41;;;19.10;100.00
8575;BME280;4325;42.520;27.448;2023-04-26T12:20:26;100134.78;;;18.91;100.00
8575;BME280;4325;42.520;27.448;2023-04-26T12:23:03;100132.72;;;19.45;100.00
8575;BME280;4325;42.520;27.448;2023-04-26T12:25:31;100136.34;;;19.82;97.90
8575;BME280;4325;42.520;27.448;2023-04-26T12:27:58;100133.91;;;20.04;94.53
8575;BME280;4325;42.520;27.448;2023-04-26T12:30:26;100131.78;;;20.37;93.62
8575;BME280;4325;42.520;27.448;2023-04-26T12:32:53;100132.50;;;20.62;91.39
8575;BME280;4325;42.520;27.448;2023-04-26T12:35:21;100125.78;;;21.19;86.76
8575;BME280;4325;42.520;27.448;2023-04-26T12:37:48;100126.94;;;21.18;85.13
8575;BME280;4325;42.520;27.448;2023-04-26T12:40:19;100132.91;;;21.32;81.24
8575;BME280;4325;42.520;27.448;2023-04-26T12:42:47;100131.78;;;22.14;81.43
8575;BME280;4325;42.520;27.448;2023-04-26T12:45:15;100135.59;;;22.98;77.88
8575;BME280;4325;42.520;27.448;2023-04-26T12:47:42;100139.22;;;23.63;70.52
8575;BME280;4325;42.520;27.448;2023-04-26T12:50:10;100139.84;;;23.76;64.53
8575;BME280;4325;42.520;27.448;2023-04-26T12:52:38;100141.06;;;23.79;66.30
8575;BME280;4325;42.520;27.448;2023-04-26T12:55:06;100136.13;;;23.95;64.98
8575;BME280;4325;42.520;27.448;2023-04-26T12:57:35;100130.25;;;24.26;64.33
8575;BME280;4325;42.520;27.448;2023-04-26T13:00:03;100132.69;;;24.57;60.35